createdAt,value
2019-04-16T00:00:02.326Z,10.40
2019-04-16T00:03:06.227Z,11.40
2019-04-16T00:06:25.707Z,12.07
2019-04-16T00:09:45.103Z,9.83
2019-04-16T00:13:26.076Z,11.40
2019-04-16T00:16:30.048Z,14.07
2019-04-16T00:19:34.776Z,11.03
2019-04-16T00:22:46.295Z,11.10
2019-04-16T00:25:52.046Z,11.67
2019-04-16T00:28:55.674Z,10.10
2019-04-16T00:32:07.898Z,13.73
2019-04-16T00:35:10.142Z,15.27
2019-04-16T00:38:13.947Z,12.17
2019-04-16T00:41:17.801Z,11.13
2019-04-16T00:44:21.670Z,11.40
2019-04-16T00:47:25.484Z,13.73
2019-04-16T00:50:29.372Z,10.93
2019-04-16T00:53:33.305Z,11.90
2019-04-16T00:56:37.129Z,11.27
2019-04-16T00:59:40.954Z,13.57
2019-04-16T01:02:46.963Z,14.97
2019-04-16T01:05:50.402Z,12.17
2019-04-16T01:08:55.182Z,12.20
2019-04-16T01:11:59.587Z,13.70
2019-04-16T01:15:03.482Z,16.57
2019-04-16T01:18:08.868Z,10.03
2019-04-16T01:21:14.152Z,10.90
2019-04-16T01:24:20.221Z,8.87
2019-04-16T01:27:32.356Z,9.60
2019-04-16T01:30:46.020Z,12.43
2019-04-16T01:33:57.768Z,11.40
2019-04-16T01:37:09.595Z,9.20
2019-04-16T01:40:18.458Z,14.23
2019-04-16T01:43:25.559Z,11.20
2019-04-16T01:46:26.682Z,10.33
2019-04-16T01:49:30.526Z,9.13
2019-04-16T01:52:34.319Z,10.20
2019-04-16T01:55:38.219Z,12.80
2019-04-16T01:58:42.084Z,10.20
2019-04-16T02:01:45.954Z,10.10
2019-04-16T02:04:52.080Z,8.23
2019-04-16T02:07:56.404Z,7.67
2019-04-16T02:11:01.034Z,7.50
2019-04-16T02:14:05.172Z,8.30
2019-04-16T02:17:09.081Z,5.67
2019-04-16T02:20:13.165Z,12.17
2019-04-16T02:23:17.475Z,8.93
2019-04-16T02:26:23.553Z,11.73
2019-04-16T02:29:29.746Z,8.67
2019-04-16T02:32:32.467Z,6.13
2019-04-16T02:35:36.265Z,9.87
2019-04-16T02:38:46.264Z,8.47
2019-04-16T02:41:45.683Z,5.83
2019-04-16T02:44:50.373Z,8.00
2019-04-16T02:47:54.413Z,8.00
2019-04-16T02:51:09.179Z,7.43
2019-04-16T02:54:37.822Z,6.20
2019-04-16T02:58:00.133Z,5.30
2019-04-16T03:01:30.732Z,5.60
2019-04-16T03:04:39.415Z,5.90
2019-04-16T03:07:43.312Z,8.53
2019-04-16T03:10:48.031Z,5.67
2019-04-16T03:13:52.869Z,9.93
2019-04-16T03:17:19.369Z,7.77
2019-04-16T03:20:24.037Z,7.80
2019-04-16T03:23:28.451Z,4.50
2019-04-16T03:26:32.310Z,6.57
2019-04-16T03:29:36.278Z,7.27
2019-04-16T03:32:52.343Z,11.80
2019-04-16T03:35:57.784Z,7.13
2019-04-16T03:39:01.860Z,7.57
2019-04-16T03:42:05.763Z,7.80
2019-04-16T03:45:10.277Z,5.80
2019-04-16T03:48:14.226Z,6.77
2019-04-16T03:51:18.129Z,6.73
2019-04-16T03:54:22.628Z,7.73
2019-04-16T03:57:27.016Z,7.27
2019-04-16T04:00:30.815Z,8.17
2019-04-16T04:03:34.606Z,7.07
2019-04-16T04:06:39.620Z,5.07
2019-04-16T04:09:44.053Z,7.70
2019-04-16T04:12:47.901Z,10.00
2019-04-16T04:15:54.894Z,8.03
2019-04-16T04:18:57.501Z,10.53
2019-04-16T04:22:01.329Z,5.57
2019-04-16T04:25:05.829Z,8.10
2019-04-16T04:28:09.715Z,5.97
2019-04-16T04:31:13.530Z,7.87
2019-04-16T04:34:17.794Z,4.70
2019-04-16T04:37:21.731Z,6.17
2019-04-16T04:40:25.556Z,9.57
2019-04-16T04:43:31.964Z,6.30
2019-04-16T04:46:35.066Z,9.13
2019-04-16T04:49:38.907Z,4.97
2019-04-16T04:52:43.220Z,9.20
2019-04-16T04:55:48.274Z,6.80
2019-04-16T04:58:52.104Z,7.67
2019-04-16T05:01:55.916Z,7.97
2019-04-16T05:05:06.809Z,5.77
2019-04-16T05:08:10.747Z,7.17
2019-04-16T05:11:15.829Z,5.53
2019-04-16T05:14:20.299Z,6.10
2019-04-16T05:17:26.827Z,8.20
2019-04-16T05:20:30.687Z,4.13
2019-04-16T05:23:37.556Z,7.27
2019-04-16T05:26:40.004Z,7.53
2019-04-16T05:29:48.600Z,5.53
2019-04-16T05:32:49.383Z,8.23
2019-04-16T05:35:53.197Z,4.90
2019-04-16T05:38:57.015Z,6.83
2019-04-16T05:42:00.903Z,6.50
2019-04-16T05:45:05.647Z,6.30
2019-04-16T05:48:10.137Z,6.60
2019-04-16T05:51:14.030Z,7.97
2019-04-16T05:54:41.504Z,3.97
2019-04-16T05:57:46.451Z,6.80
2019-04-16T06:01:04.033Z,4.03
2019-04-16T06:04:07.951Z,4.83
2019-04-16T06:07:11.758Z,6.20
2019-04-16T06:10:18.135Z,6.87
2019-04-16T06:13:28.940Z,6.87
2019-04-16T06:16:57.611Z,5.87
2019-04-16T06:20:25.400Z,6.33
2019-04-16T06:23:48.514Z,6.50
2019-04-16T06:27:14.520Z,5.93
2019-04-16T06:30:32.942Z,6.80
2019-04-16T06:33:54.213Z,5.70
2019-04-16T06:37:21.603Z,8.53
2019-04-16T06:41:03.343Z,4.60
2019-04-16T06:44:12.731Z,6.17
2019-04-16T06:47:34.495Z,5.50
2019-04-16T06:50:58.671Z,6.17
2019-04-16T06:54:33.604Z,4.43
2019-04-16T06:57:54.809Z,4.67
2019-04-16T07:01:16.316Z,5.07
2019-04-16T07:04:39.299Z,7.90
2019-04-16T07:08:00.811Z,7.03
2019-04-16T07:11:04.732Z,4.00
2019-04-16T07:14:11.572Z,6.33
2019-04-16T07:17:17.339Z,5.43
2019-04-16T07:20:19.911Z,5.63
2019-04-16T07:23:24.767Z,5.07
2019-04-16T07:26:29.333Z,3.03
2019-04-16T07:29:37.160Z,4.43
2019-04-16T07:33:11.980Z,4.40
2019-04-16T07:36:43.738Z,3.57
2019-04-16T07:39:57.635Z,4.23
2019-04-16T07:43:31.004Z,6.93
2019-04-16T07:46:56.687Z,3.40
2019-04-16T07:50:25.530Z,4.70
2019-04-16T07:53:39.611Z,4.03
2019-04-16T07:56:46.679Z,3.17
2019-04-16T07:59:50.616Z,3.67
2019-04-16T08:02:54.723Z,5.63
2019-04-16T08:05:58.667Z,7.60
2019-04-16T08:09:02.607Z,5.50
2019-04-16T08:12:10.772Z,6.13
2019-04-16T08:15:15.258Z,5.33
2019-04-16T08:18:18.081Z,5.40
2019-04-16T08:21:22.681Z,4.13
2019-04-16T08:24:31.559Z,5.10
2019-04-16T08:27:35.410Z,5.33
2019-04-16T08:30:39.621Z,4.63
2019-04-16T08:33:43.605Z,6.33
2019-04-16T08:36:47.444Z,5.67
2019-04-16T08:39:51.278Z,6.67
2019-04-16T08:42:57.522Z,4.40
2019-04-16T08:46:00.701Z,3.70
2019-04-16T08:49:04.971Z,5.63
2019-04-16T08:52:10.170Z,3.97
2019-04-16T08:55:14.608Z,6.57
2019-04-16T08:58:18.514Z,7.57
2019-04-16T09:01:27.066Z,6.77
2019-04-16T09:04:34.275Z,5.33
2019-04-16T09:07:39.505Z,3.77
2019-04-16T09:10:44.761Z,4.73
2019-04-16T09:13:53.397Z,7.53
2019-04-16T09:17:04.711Z,6.37
2019-04-16T09:20:10.672Z,5.53
2019-04-16T09:23:14.557Z,5.40
2019-04-16T09:26:32.838Z,6.43
2019-04-16T09:29:58.763Z,3.43
2019-04-16T09:33:34.451Z,5.53
2019-04-16T09:36:56.105Z,5.33
2019-04-16T09:40:18.592Z,3.10
2019-04-16T09:43:23.906Z,7.07
2019-04-16T09:46:49.769Z,5.50
2019-04-16T09:49:34.289Z,3.57
2019-04-16T09:52:39.221Z,5.90
2019-04-16T09:55:43.129Z,4.37
2019-04-16T09:58:46.942Z,5.67
2019-04-16T10:01:54.241Z,5.07
2019-04-16T10:04:58.239Z,4.77
2019-04-16T10:08:02.063Z,4.40
2019-04-16T10:11:06.495Z,5.53
2019-04-16T10:14:10.533Z,6.77
2019-04-16T10:17:14.786Z,5.40
2019-04-16T10:20:18.766Z,5.63
2019-04-16T10:23:41.619Z,6.87
2019-04-16T10:26:47.306Z,5.33
2019-04-16T10:29:51.160Z,5.47
2019-04-16T10:32:55.160Z,4.90
2019-04-16T10:36:01.103Z,4.73
2019-04-16T10:39:24.608Z,6.00
2019-04-16T10:42:50.507Z,4.57
2019-04-16T10:46:19.096Z,5.97
2019-04-16T10:49:51.041Z,5.10
2019-04-16T10:53:16.657Z,8.03
2019-04-16T10:56:39.472Z,6.97
2019-04-16T11:00:08.567Z,6.07
2019-04-16T11:03:19.844Z,6.50
2019-04-16T11:06:35.254Z,6.30
2019-04-16T11:09:39.193Z,5.40
2019-04-16T11:12:43.007Z,5.87
2019-04-16T11:15:46.829Z,5.87
2019-04-16T11:18:50.797Z,8.57
2019-04-16T11:21:54.753Z,6.17
2019-04-16T11:24:58.637Z,9.13
2019-04-16T11:28:02.589Z,7.67
2019-04-16T11:31:10.674Z,4.50
2019-04-16T11:34:14.707Z,8.77
2019-04-16T11:37:18.518Z,5.23
2019-04-16T11:40:22.422Z,6.57
2019-04-16T11:43:26.375Z,4.47
2019-04-16T11:46:30.315Z,5.27
2019-04-16T11:49:34.248Z,7.77
2019-04-16T11:52:39.936Z,4.70
2019-04-16T11:55:43.834Z,6.63
2019-04-16T11:58:47.763Z,6.10
2019-04-16T12:02:06.776Z,5.17
2019-04-16T12:05:25.659Z,5.70
2019-04-16T12:08:42.710Z,8.83
2019-04-16T12:11:52.951Z,5.77
2019-04-16T12:15:17.515Z,8.03
2019-04-16T12:18:47.711Z,5.23
2019-04-16T12:22:03.747Z,7.37
2019-04-16T12:25:26.695Z,7.67
2019-04-16T12:28:59.473Z,8.20
2019-04-16T12:32:26.808Z,6.70
2019-04-16T12:35:45.537Z,6.53
2019-04-16T12:39:00.202Z,6.43
2019-04-16T12:42:17.313Z,8.03
2019-04-16T12:45:32.942Z,7.13
2019-04-16T12:49:08.036Z,6.43
2019-04-16T12:52:39.927Z,9.30
2019-04-16T12:56:06.037Z,6.90
2019-04-16T12:59:31.666Z,11.63
2019-04-16T13:02:57.387Z,6.63
2019-04-16T13:06:29.495Z,6.80
2019-04-16T13:09:51.081Z,6.87
2019-04-16T13:13:26.142Z,7.07
2019-04-16T13:16:47.538Z,9.20
2019-04-16T13:20:08.473Z,7.50
2019-04-16T13:23:19.544Z,7.43
2019-04-16T13:26:26.083Z,7.17
2019-04-16T13:29:31.771Z,6.37
2019-04-16T13:32:35.570Z,9.80
2019-04-16T13:35:39.483Z,8.40
2019-04-16T13:38:47.980Z,9.00
2019-04-16T13:41:51.876Z,8.17
2019-04-16T13:45:17.014Z,8.80
2019-04-16T13:48:31.874Z,6.83
2019-04-16T13:51:35.864Z,5.90
2019-04-16T13:54:48.663Z,5.50
2019-04-16T13:58:01.426Z,6.53
2019-04-16T14:01:18.903Z,6.70
2019-04-16T14:04:22.740Z,6.67
2019-04-16T14:07:26.624Z,9.00
2019-04-16T14:10:30.471Z,8.77
2019-04-16T14:13:34.401Z,6.60
2019-04-16T14:16:40.878Z,8.07
2019-04-16T14:19:43.882Z,7.37
2019-04-16T14:22:47.821Z,9.33
2019-04-16T14:25:51.661Z,7.00
2019-04-16T14:28:56.991Z,6.07
2019-04-16T14:32:00.869Z,8.13
2019-04-16T14:35:10.348Z,5.77
2019-04-16T14:38:17.253Z,5.77
2019-04-16T14:41:21.055Z,7.00
2019-04-16T14:44:27.141Z,8.17
2019-04-16T14:47:33.000Z,7.07
2019-04-16T14:50:36.616Z,8.37
2019-04-16T14:53:51.249Z,7.90
2019-04-16T14:56:57.342Z,8.73
2019-04-16T15:00:24.539Z,9.43
2019-04-16T15:03:37.166Z,8.53
2019-04-16T15:07:03.505Z,10.37
2019-04-16T15:10:16.429Z,8.90
2019-04-16T15:13:34.965Z,7.27
2019-04-16T15:16:50.881Z,7.60
2019-04-16T15:20:06.854Z,7.50
2019-04-16T15:23:29.007Z,8.00
2019-04-16T15:26:53.342Z,8.13
2019-04-16T15:30:13.870Z,6.80
2019-04-16T15:33:48.610Z,9.90
2019-04-16T15:37:07.499Z,12.63
2019-04-16T15:40:40.572Z,9.23
2019-04-16T15:43:56.483Z,12.67
2019-04-16T15:47:05.529Z,7.60
2019-04-16T15:50:35.751Z,8.97
2019-04-16T15:53:58.146Z,8.47
2019-04-16T15:57:18.688Z,7.73
2019-04-16T16:00:36.213Z,9.23
2019-04-16T16:04:11.301Z,7.23
2019-04-16T16:07:18.560Z,7.07
2019-04-16T16:10:26.646Z,8.07
2019-04-16T16:13:30.448Z,6.83
2019-04-16T16:16:41.756Z,9.33
2019-04-16T16:19:39.886Z,9.43
2019-04-16T16:22:43.711Z,10.27
2019-04-16T16:25:47.617Z,8.30
2019-04-16T16:28:51.427Z,7.23
2019-04-16T16:31:55.308Z,9.07
2019-04-16T16:34:59.358Z,10.17
2019-04-16T16:38:03.573Z,10.60
2019-04-16T16:41:07.571Z,11.90
2019-04-16T16:44:11.367Z,10.27
2019-04-16T16:47:40.472Z,12.40
2019-04-16T16:50:44.782Z,10.77
2019-04-16T16:54:12.308Z,8.53
2019-04-16T16:57:20.397Z,9.17
2019-04-16T17:00:42.215Z,10.30
2019-04-16T17:04:04.045Z,8.70
2019-04-16T17:07:08.827Z,9.07
2019-04-16T17:10:12.793Z,6.93
2019-04-16T17:13:20.937Z,7.43
2019-04-16T17:16:22.271Z,6.63
2019-04-16T17:19:26.091Z,10.37
2019-04-16T17:22:29.917Z,9.67
2019-04-16T17:25:36.654Z,9.80
2019-04-16T17:28:40.370Z,6.90
2019-04-16T17:31:44.891Z,10.07
2019-04-16T17:34:48.809Z,6.27
2019-04-16T17:37:52.626Z,6.17
2019-04-16T17:41:00.203Z,5.90
2019-04-16T17:44:16.571Z,9.57
2019-04-16T17:47:48.632Z,8.77
2019-04-16T17:51:17.479Z,8.37
2019-04-16T17:54:31.757Z,10.20
2019-04-16T17:57:51.816Z,11.70
2019-04-16T18:01:11.063Z,8.27
2019-04-16T18:04:36.771Z,5.80
2019-04-16T18:07:58.502Z,5.73
2019-04-16T18:11:10.810Z,6.67
2019-04-16T18:14:33.838Z,7.77
2019-04-16T18:17:57.130Z,10.73
2019-04-16T18:21:19.861Z,8.13
2019-04-16T18:24:28.882Z,7.80
2019-04-16T18:27:40.052Z,9.10
2019-04-16T18:30:49.891Z,9.13
2019-04-16T18:34:08.251Z,7.93
2019-04-16T18:37:38.365Z,8.33
2019-04-16T18:41:07.219Z,11.90
2019-04-16T18:44:42.227Z,8.37
2019-04-16T18:48:13.819Z,7.30
2019-04-16T18:51:16.910Z,11.37
2019-04-16T18:54:21.386Z,8.20
2019-04-16T18:57:25.256Z,6.97
2019-04-16T19:00:37.985Z,6.80
2019-04-16T19:03:42.009Z,9.63
2019-04-16T19:06:45.796Z,5.90
2019-04-16T19:09:49.621Z,7.23
2019-04-16T19:12:53.537Z,6.50
2019-04-16T19:15:57.334Z,8.07
2019-04-16T19:19:01.183Z,10.23
2019-04-16T19:22:05.234Z,10.50
2019-04-16T19:25:09.440Z,8.50
2019-04-16T19:28:13.328Z,8.90
2019-04-16T19:31:17.162Z,8.53
2019-04-16T19:34:20.971Z,8.47
2019-04-16T19:37:24.808Z,6.00
2019-04-16T19:40:28.595Z,8.60
2019-04-16T19:43:35.274Z,7.97
2019-04-16T19:46:38.088Z,7.17
2019-04-16T19:49:42.040Z,7.67
2019-04-16T19:52:45.949Z,12.30
2019-04-16T19:55:49.961Z,12.67
2019-04-16T19:58:53.761Z,10.37
2019-04-16T20:02:00.199Z,9.97
2019-04-16T20:05:03.186Z,9.17
2019-04-16T20:08:07.005Z,8.90
2019-04-16T20:11:10.921Z,8.73
2019-04-16T20:14:14.741Z,10.70
2019-04-16T20:17:18.547Z,8.97
2019-04-16T20:20:22.393Z,9.23
2019-04-16T20:23:26.198Z,9.73
2019-04-16T20:26:32.441Z,11.27
2019-04-16T20:29:35.652Z,11.97
2019-04-16T20:32:42.275Z,8.37
2019-04-16T20:35:50.359Z,10.00
2019-04-16T20:38:50.666Z,10.43
2019-04-16T20:41:58.992Z,10.20
2019-04-16T20:45:00.075Z,12.17
2019-04-16T20:48:04.033Z,12.77
2019-04-16T20:51:07.849Z,15.47
2019-04-16T20:54:13.792Z,12.77
2019-04-16T20:57:17.233Z,13.70
2019-04-16T21:00:27.379Z,10.33
2019-04-16T21:03:31.606Z,11.50
2019-04-16T21:06:40.519Z,11.63
2019-04-16T21:09:41.188Z,12.40
2019-04-16T21:12:46.039Z,11.30
2019-04-16T21:15:50.035Z,11.77
2019-04-16T21:18:53.919Z,12.33
2019-04-16T21:22:01.310Z,12.53
2019-04-16T21:25:03.724Z,13.17
2019-04-16T21:28:14.944Z,11.50
2019-04-16T21:31:26.766Z,10.47
2019-04-16T21:34:45.185Z,8.67
2019-04-16T21:38:17.379Z,15.53
2019-04-16T21:41:21.179Z,12.67
2019-04-16T21:44:25.032Z,16.40
2019-04-16T21:47:28.912Z,12.57
2019-04-16T21:50:32.717Z,10.90
2019-04-16T21:53:36.562Z,11.33
2019-04-16T21:56:40.407Z,12.70
2019-04-16T21:59:44.254Z,14.87
2019-04-16T22:02:48.204Z,12.83
2019-04-16T22:05:52.205Z,11.77
2019-04-16T22:08:58.855Z,11.43
2019-04-16T22:12:01.655Z,9.27
2019-04-16T22:15:06.726Z,14.30
2019-04-16T22:18:10.537Z,12.60
2019-04-16T22:21:14.435Z,9.83
2019-04-16T22:24:19.739Z,11.57
2019-04-16T22:27:23.822Z,12.37
2019-04-16T22:30:27.659Z,13.57
2019-04-16T22:33:31.565Z,11.07
2019-04-16T22:36:35.538Z,12.53
2019-04-16T22:43:39.675Z,16.77
2019-04-16T22:46:49.987Z,13.47
2019-04-16T22:49:56.707Z,14.47
2019-04-16T22:52:59.517Z,14.23
2019-04-16T22:56:03.437Z,12.20
2019-04-16T22:59:08.365Z,14.30
2019-04-16T23:02:24.075Z,14.13
2019-04-16T23:05:30.803Z,11.37
2019-04-16T23:08:33.398Z,13.77
2019-04-16T23:11:39.128Z,14.83
2019-04-16T23:14:43.058Z,9.73
2019-04-16T23:17:46.950Z,13.50
2019-04-16T23:20:50.823Z,8.83
2019-04-16T23:23:54.635Z,10.67
2019-04-16T23:27:04.256Z,11.50
2019-04-16T23:30:05.534Z,10.23
2019-04-16T23:33:09.715Z,8.90
2019-04-16T23:36:16.545Z,14.10
2019-04-16T23:39:19.174Z,13.83
2019-04-16T23:42:22.990Z,9.33
2019-04-16T23:45:51.956Z,11.83
2019-04-16T23:49:01.718Z,7.33
2019-04-16T23:52:14.200Z,15.67
2019-04-16T23:55:35.863Z,10.83
2019-04-16T23:59:01.464Z,7.47
